Time;durP1;ratioP1;P1;durP2;ratioP2;P2;SDS_P1;SDS_P2;PMS_P1;PMS_P2;Temp;Humidity;BMP_temperature;BMP_pressure;BME280_temperature;BME280_humidity;BME280_pressure;Samples;Min_cycle;Max_cycle;Signal;HPM_P1;HPM_P2
2024/01/11 00:00:30;;;;;;;3.88;0.57;;;7.00;99.90;;;;;;5074608;28;20360;-79
2024/01/11 00:02:55;;;;;;;1.48;0.77;;;7.00;99.90;;;;;;5110415;28;20038;-79
2024/01/11 00:05:21;;;;;;;3.08;0.82;;;7.10;99.90;;;;;;5109690;28;20031;-79
2024/01/11 00:07:48;;;;;;;2.13;0.80;;;7.10;99.90;;;;;;5109843;28;20015;-79
2024/01/11 00:10:14;;;;;;;1.92;0.57;;;7.20;99.90;;;;;;5109693;28;20023;-80
2024/01/11 00:12:39;;;;;;;2.13;0.90;;;7.20;99.90;;;;;;5109940;28;20023;-80
2024/01/11 00:15:06;;;;;;;1.45;0.47;;;7.20;99.90;;;;;;5109521;28;20080;-80
2024/01/11 00:17:31;;;;;;;2.03;1.10;;;7.20;99.90;;;;;;5110087;28;20028;-78
2024/01/11 00:19:57;;;;;;;3.15;1.10;;;7.10;99.90;;;;;;5110231;28;20431;-78
2024/01/11 00:22:23;;;;;;;2.03;0.90;;;7.20;99.90;;;;;;5109299;28;20822;-78
2024/01/11 00:24:48;;;;;;;4.80;1.10;;;7.20;99.90;;;;;;5109519;28;20088;-79
2024/01/11 00:27:14;;;;;;;6.50;2.83;;;7.20;99.90;;;;;;5109568;28;20019;-79
2024/01/11 00:29:40;;;;;;;6.00;2.97;;;7.20;99.90;;;;;;5109908;28;20039;-79
2024/01/11 00:32:05;;;;;;;9.82;2.75;;;7.20;99.90;;;;;;5108962;28;20020;-79
2024/01/11 00:34:31;;;;;;;7.53;3.30;;;7.10;99.90;;;;;;5091508;28;20184;-79
2024/01/11 00:36:57;;;;;;;5.00;2.08;;;7.20;99.90;;;;;;5129675;27;20019;-79
2024/01/11 00:39:23;;;;;;;5.30;1.45;;;7.20;99.90;;;;;;5134535;27;20059;-79
2024/01/11 00:41:48;;;;;;;3.17;1.65;;;7.20;99.90;;;;;;5134576;27;20019;-80
2024/01/11 00:44:14;;;;;;;3.53;1.42;;;7.20;99.90;;;;;;5134541;27;20235;-79
2024/01/11 00:46:40;;;;;;;6.20;1.77;;;7.20;99.90;;;;;;5134722;27;20019;-80
2024/01/11 00:49:06;;;;;;;6.05;1.40;;;7.20;99.90;;;;;;5134367;27;20110;-80
2024/01/11 00:51:32;;;;;;;2.10;0.90;;;7.20;99.90;;;;;;5116263;27;20046;-79
2024/01/11 00:53:58;;;;;;;3.83;1.20;;;7.20;99.90;;;;;;5116405;27;20455;-79
2024/01/11 00:56:24;;;;;;;2.15;1.23;;;7.10;99.90;;;;;;5133911;27;20336;-80
2024/01/11 00:58:50;;;;;;;2.30;1.00;;;7.10;99.90;;;;;;5135138;27;20023;-80
2024/01/11 01:01:15;;;;;;;1.70;0.75;;;7.10;99.90;;;;;;5115530;27;20019;-78
2024/01/11 01:03:41;;;;;;;3.90;0.90;;;7.10;99.90;;;;;;5134713;27;20434;-79
2024/01/11 01:06:07;;;;;;;4.05;1.13;;;7.10;99.90;;;;;;5133812;27;20046;-78
2024/01/11 01:08:33;;;;;;;3.92;0.90;;;7.10;99.90;;;;;;5134812;27;20341;-79
2024/01/11 01:10:58;;;;;;;3.35;1.00;;;7.10;99.90;;;;;;5134166;27;20088;-79
2024/01/11 01:13:25;;;;;;;3.40;1.00;;;7.10;99.90;;;;;;5133945;27;20035;-79
2024/01/11 01:15:51;;;;;;;5.45;1.10;;;7.10;99.90;;;;;;5134488;27;20371;-79
2024/01/11 01:18:16;;;;;;;3.03;0.90;;;7.10;99.90;;;;;;5133770;27;20034;-79
2024/01/11 01:20:42;;;;;;;5.78;1.08;;;7.10;99.90;;;;;;5134236;27;20095;-79
2024/01/11 01:23:08;;;;;;;1.70;0.50;;;7.10;99.90;;;;;;5133462;27;20021;-79
2024/01/11 01:25:33;;;;;;;4.35;0.82;;;7.20;99.90;;;;;;5134121;27;20075;-79
2024/01/11 01:28:00;;;;;;;3.85;1.00;;;7.10;99.90;;;;;;5133699;27;20027;-79
2024/01/11 01:30:27;;;;;;;3.13;0.65;;;7.10;99.90;;;;;;5133253;27;20427;-79
2024/01/11 01:32:53;;;;;;;2.40;0.70;;;7.10;99.90;;;;;;5133945;27;20114;-79
2024/01/11 01:35:18;;;;;;;3.05;0.80;;;7.10;99.90;;;;;;5133650;27;20038;-79
2024/01/11 01:37:44;;;;;;;7.72;1.30;;;7.20;99.90;;;;;;5134072;27;20053;-79
2024/01/11 01:40:11;;;;;;;2.20;0.50;;;7.10;99.90;;;;;;5133798;27;20141;-79
2024/01/11 01:42:44;;;;;;;3.67;0.77;;;7.20;99.90;;;;;;5133765;27;20015;-79
2024/01/11 01:45:10;;;;;;;1.15;0.50;;;7.10;99.90;;;;;;5133671;27;20019;-79
2024/01/11 01:47:39;;;;;;;2.92;0.90;;;7.10;99.90;;;;;;5132882;27;20023;-78
2024/01/11 01:50:06;;;;;;;6.07;1.13;;;7.10;99.90;;;;;;5133405;27;20030;-79
2024/01/11 01:52:33;;;;;;;2.88;1.02;;;7.10;99.90;;;;;;5133091;27;20042;-78
2024/01/11 01:54:59;;;;;;;4.43;0.90;;;7.10;99.90;;;;;;5133303;27;20019;-78
2024/01/11 01:57:25;;;;;;;2.47;0.98;;;7.10;99.90;;;;;;5132156;27;20159;-79
2024/01/11 01:59:52;;;;;;;2.30;0.77;;;7.10;99.90;;;;;;5133410;27;20454;-78
2024/01/11 02:02:20;;;;;;;1.65;0.77;;;7.10;99.90;;;;;;5132413;27;20023;-78
2024/01/11 02:04:46;;;;;;;1.58;0.60;;;7.10;99.90;;;;;;5133048;27;20027;-78
2024/01/11 02:07:12;;;;;;;1.33;0.80;;;7.10;99.90;;;;;;5132545;27;20438;-78
2024/01/11 02:09:39;;;;;;;1.98;0.90;;;7.10;99.90;;;;;;5133300;27;20068;-79
2024/01/11 02:12:06;;;;;;;3.97;0.98;;;7.20;99.90;;;;;;5133073;27;20114;-78
2024/01/11 02:14:32;;;;;;;2.10;0.82;;;7.20;99.90;;;;;;5132713;27;20023;-79
2024/01/11 02:16:58;;;;;;;6.03;0.90;;;7.20;99.90;;;;;;5132772;27;20027;-80
2024/01/11 02:19:24;;;;;;;3.40;0.90;;;7.20;99.90;;;;;;5132173;27;20336;-80
2024/01/11 02:21:53;;;;;;;1.92;0.70;;;7.30;99.90;;;;;;5132296;27;20031;-80
2024/01/11 02:24:19;;;;;;;5.88;0.80;;;7.30;99.90;;;;;;5132660;27;20099;-80
2024/01/11 02:27:02;;;;;;;2.33;0.65;;;7.20;99.90;;;;;;5114121;27;20026;-80
2024/01/11 02:29:29;;;;;;;1.63;0.52;;;7.30;99.90;;;;;;5113678;27;20651;-80
2024/01/11 02:31:55;;;;;;;4.30;0.82;;;7.30;99.90;;;;;;5132248;27;20027;-80
2024/01/11 02:34:23;;;;;;;0.90;0.60;;;7.30;99.90;;;;;;5132095;27;20037;-80
2024/01/11 02:36:50;;;;;;;3.75;1.00;;;7.30;99.90;;;;;;5114094;27;20051;-80
2024/01/11 02:39:18;;;;;;;5.03;0.82;;;7.40;99.90;;;;;;5131667;27;20102;-80
2024/01/11 02:41:44;;;;;;;6.43;1.10;;;7.40;99.90;;;;;;5132399;27;20023;-80
2024/01/11 02:44:10;;;;;;;2.70;0.95;;;7.40;99.90;;;;;;5114252;27;20402;-80
2024/01/11 02:46:36;;;;;;;5.53;1.00;;;7.30;99.90;;;;;;5132874;27;20018;-80
2024/01/11 02:49:02;;;;;;;4.80;0.90;;;7.40;99.90;;;;;;5113939;27;20489;-80
2024/01/11 02:51:28;;;;;;;3.30;0.90;;;7.40;99.90;;;;;;5113737;27;20038;-80
2024/01/11 02:53:53;;;;;;;2.95;0.77;;;7.40;99.90;;;;;;5132824;27;20023;-80
2024/01/11 02:56:19;;;;;;;3.03;0.88;;;7.40;99.90;;;;;;5132102;27;20147;-80
2024/01/11 02:58:45;;;;;;;3.85;0.90;;;7.40;99.90;;;;;;5132409;27;20023;-79
2024/01/11 03:01:10;;;;;;;4.55;0.80;;;7.40;99.90;;;;;;5132053;27;20019;-80
2024/01/11 03:03:36;;;;;;;4.22;0.88;;;7.40;99.90;;;;;;5131916;27;20428;-80
2024/01/11 03:06:02;;;;;;;7.07;0.98;;;7.40;99.90;;;;;;5132467;27;20045;-80
2024/01/11 03:08:28;;;;;;;6.82;1.17;;;7.40;99.90;;;;;;5131558;27;20027;-80
2024/01/11 03:10:54;;;;;;;5.60;1.92;;;7.40;99.90;;;;;;5132188;27;20076;-80
2024/01/11 03:13:20;;;;;;;3.40;1.00;;;7.40;99.90;;;;;;5132022;27;20053;-80
2024/01/11 03:15:46;;;;;;;2.78;0.80;;;7.40;99.90;;;;;;5131904;27;20027;-80
2024/01/11 03:18:12;;;;;;;5.82;0.95;;;7.40;99.90;;;;;;5131765;27;20373;-80
2024/01/11 03:20:38;;;;;;;3.30;0.80;;;7.40;99.90;;;;;;5132536;27;20356;-80
2024/01/11 03:23:03;;;;;;;3.65;0.90;;;7.40;99.90;;;;;;5113357;28;20114;-79
2024/01/11 03:25:32;;;;;;;1.92;0.70;;;7.40;99.90;;;;;;5130969;27;20019;-79
2024/01/11 03:28:01;;;;;;;3.58;0.95;;;7.50;99.90;;;;;;5131987;27;20027;-80
2024/01/11 03:30:26;;;;;;;1.13;0.60;;;7.40;99.90;;;;;;5131140;27;20035;-79
2024/01/11 03:32:53;;;;;;;2.88;0.98;;;7.40;99.90;;;;;;5113210;28;20023;-80
2024/01/11 03:35:19;;;;;;;2.38;0.90;;;7.40;99.90;;;;;;5131084;28;20369;-79
2024/01/11 03:37:45;;;;;;;3.25;0.90;;;7.40;99.90;;;;;;5131780;28;20099;-79
2024/01/11 03:40:11;;;;;;;6.88;1.23;;;7.40;99.90;;;;;;5131642;28;20030;-79
2024/01/11 03:42:37;;;;;;;3.45;1.10;;;7.40;99.90;;;;;;5131686;28;20026;-80
2024/01/11 03:45:04;;;;;;;9.13;1.48;;;7.30;99.90;;;;;;5113299;28;20019;-79
2024/01/11 03:47:30;;;;;;;4.88;0.80;;;7.40;99.90;;;;;;5131078;28;20046;-79
2024/01/11 03:49:56;;;;;;;3.35;0.73;;;7.30;99.90;;;;;;5131445;28;20060;-80
2024/01/11 03:52:21;;;;;;;7.55;1.20;;;7.30;99.90;;;;;;5130856;28;20027;-80
2024/01/11 03:54:47;;;;;;;5.63;1.52;;;7.30;99.90;;;;;;5112894;28;20023;-79
2024/01/11 03:57:13;;;;;;;2.95;0.98;;;7.40;99.90;;;;;;5131209;28;20045;-79
2024/01/11 03:59:40;;;;;;;3.40;1.20;;;7.40;99.90;;;;;;5130789;28;20479;-79
2024/01/11 04:02:06;;;;;;;5.80;1.17;;;7.30;99.90;;;;;;5131556;28;20440;-79
2024/01/11 04:04:32;;;;;;;8.73;1.45;;;7.30;99.90;;;;;;5111923;28;20367;-80
2024/01/11 04:06:58;;;;;;;4.20;1.10;;;7.30;99.90;;;;;;5131775;28;20023;-79
2024/01/11 04:09:25;;;;;;;3.05;0.90;;;7.30;99.90;;;;;;5112101;27;20066;-79
2024/01/11 04:11:51;;;;;;;3.33;1.15;;;7.30;99.90;;;;;;5134724;27;20074;-78
2024/01/11 04:14:17;;;;;;;7.38;1.50;;;7.40;99.90;;;;;;5134742;27;20043;-77
2024/01/11 04:16:43;;;;;;;4.25;1.13;;;7.40;99.90;;;;;;5134941;27;20019;-77
2024/01/11 04:19:09;;;;;;;6.18;1.27;;;7.40;99.90;;;;;;5135183;27;20105;-77
2024/01/11 04:21:35;;;;;;;6.70;1.30;;;7.40;99.90;;;;;;5134662;27;20039;-77
2024/01/11 04:24:01;;;;;;;4.40;1.52;;;7.40;99.90;;;;;;5135221;27;20022;-77
2024/01/11 04:26:26;;;;;;;12.40;1.67;;;7.40;99.90;;;;;;5134620;27;20019;-81
2024/01/11 04:28:53;;;;;;;7.68;1.42;;;7.40;99.90;;;;;;5134757;27;20364;-77
2024/01/11 04:31:19;;;;;;;6.05;1.40;;;7.40;99.90;;;;;;5134108;27;20023;-77
2024/01/11 04:33:46;;;;;;;5.63;1.48;;;7.40;99.90;;;;;;5134898;27;20466;-77
2024/01/11 04:36:12;;;;;;;5.68;1.30;;;7.30;99.90;;;;;;5135048;27;20019;-77
2024/01/11 04:38:39;;;;;;;6.88;1.73;;;7.30;99.90;;;;;;5115911;27;20043;-77
2024/01/11 04:41:09;;;;;;;9.05;1.60;;;7.40;99.90;;;;;;5134983;27;20040;-78
2024/01/11 04:43:38;;;;;;;4.60;1.17;;;7.40;99.90;;;;;;5134558;27;20023;-78
2024/01/11 04:46:12;;;;;;;7.28;1.73;;;7.40;99.90;;;;;;5134628;27;20022;-78
2024/01/11 04:48:37;;;;;;;4.50;1.20;;;7.40;99.90;;;;;;5134536;27;20053;-78
2024/01/11 04:51:03;;;;;;;7.25;1.35;;;7.40;99.90;;;;;;5134595;27;20112;-78
2024/01/11 04:53:29;;;;;;;4.30;1.10;;;7.40;99.90;;;;;;5133789;27;20045;-78
2024/01/11 04:55:55;;;;;;;7.90;1.45;;;7.30;99.90;;;;;;5134575;27;20389;-79
2024/01/11 04:58:20;;;;;;;6.18;1.25;;;7.30;99.90;;;;;;5134217;27;20046;-79
2024/01/11 05:00:46;;;;;;;4.45;1.30;;;7.30;99.90;;;;;;5134083;27;20026;-79
2024/01/11 05:03:12;;;;;;;8.35;1.83;;;7.30;99.90;;;;;;5134314;27;20094;-79
2024/01/11 05:05:37;;;;;;;6.82;1.42;;;7.20;99.90;;;;;;5133761;27;20114;-78
2024/01/11 05:08:03;;;;;;;7.43;1.60;;;7.30;99.90;;;;;;5134915;27;20015;-79
2024/01/11 05:10:29;;;;;;;5.22;1.45;;;7.30;99.90;;;;;;5134094;27;20028;-78
2024/01/11 05:12:55;;;;;;;10.23;1.45;;;7.30;99.90;;;;;;5134256;27;20344;-78
2024/01/11 05:15:20;;;;;;;5.38;1.30;;;7.30;99.90;;;;;;5133745;27;20411;-78
2024/01/11 05:17:46;;;;;;;6.80;1.77;;;7.30;99.90;;;;;;5134301;27;20083;-78
2024/01/11 05:20:12;;;;;;;11.70;1.70;;;7.30;99.90;;;;;;5134461;27;20412;-78
2024/01/11 05:22:37;;;;;;;4.93;1.25;;;7.40;99.90;;;;;;5132773;27;20024;-78
2024/01/11 05:25:03;;;;;;;5.25;1.60;;;7.40;99.90;;;;;;5134303;27;20023;-79
2024/01/11 05:27:29;;;;;;;8.40;1.30;;;7.40;99.90;;;;;;5114998;27;20113;-79
2024/01/11 05:29:55;;;;;;;4.95;1.30;;;7.30;99.90;;;;;;5133454;27;20168;-79
2024/01/11 05:32:21;;;;;;;14.85;2.85;;;7.30;99.90;;;;;;5133866;27;20410;-78
2024/01/11 05:34:46;;;;;;;5.82;1.70;;;7.30;99.90;;;;;;5133827;27;20027;-78
2024/01/11 05:37:12;;;;;;;6.35;1.35;;;7.30;99.90;;;;;;5098508;27;20027;-78
2024/01/11 05:39:37;;;;;;;13.93;2.17;;;7.30;99.90;;;;;;5133559;27;20022;-78
2024/01/11 05:42:03;;;;;;;9.13;1.20;;;7.30;99.90;;;;;;5133938;27;20476;-78
2024/01/11 05:44:29;;;;;;;10.90;2.08;;;7.40;99.90;;;;;;5133263;27;20015;-79
2024/01/11 05:46:55;;;;;;;6.40;1.20;;;7.40;99.90;;;;;;5133976;27;20031;-78
2024/01/11 05:49:21;;;;;;;7.90;1.30;;;7.30;99.90;;;;;;5133353;27;20114;-78
2024/01/11 05:51:46;;;;;;;5.43;1.42;;;7.40;99.90;;;;;;5133449;27;20050;-78
2024/01/11 05:54:12;;;;;;;9.73;1.42;;;7.40;99.90;;;;;;5133956;27;20185;-79
2024/01/11 05:56:38;;;;;;;6.38;1.27;;;7.50;99.90;;;;;;5132547;27;20039;-79
2024/01/11 05:59:04;;;;;;;5.45;1.40;;;7.40;99.90;;;;;;5133259;27;20052;-78
2024/01/11 06:01:30;;;;;;;7.88;1.35;;;7.50;99.90;;;;;;5132760;27;20023;-78
2024/01/11 06:03:55;;;;;;;11.80;1.38;;;7.40;99.90;;;;;;5133304;27;20401;-79
2024/01/11 06:06:21;;;;;;;7.53;1.38;;;7.50;99.90;;;;;;5132831;27;20022;-79
2024/01/11 06:08:48;;;;;;;7.50;1.42;;;7.40;99.90;;;;;;5132881;27;20480;-78
2024/01/11 06:11:14;;;;;;;5.57;1.30;;;7.40;99.90;;;;;;5132818;27;20079;-78
2024/01/11 06:13:41;;;;;;;9.40;1.88;;;7.40;99.90;;;;;;5113876;27;20023;-79
2024/01/11 06:16:07;;;;;;;11.73;2.13;;;7.40;99.90;;;;;;5115079;27;20046;-78
2024/01/11 06:18:33;;;;;;;6.28;1.20;;;7.50;99.90;;;;;;5132394;27;20022;-78
2024/01/11 06:20:59;;;;;;;9.38;1.48;;;7.40;99.90;;;;;;5132795;27;20027;-78
2024/01/11 06:23:25;;;;;;;9.57;1.50;;;7.40;99.90;;;;;;5132751;27;20031;-78
2024/01/11 06:25:51;;;;;;;6.32;1.27;;;7.40;99.90;;;;;;5133317;27;20020;-78
2024/01/11 06:28:16;;;;;;;9.55;1.63;;;7.40;99.90;;;;;;5132941;27;20095;-78
2024/01/11 06:30:43;;;;;;;7.00;1.35;;;7.40;99.90;;;;;;5131958;27;20027;-78
2024/01/11 06:33:09;;;;;;;6.10;1.20;;;7.40;99.90;;;;;;5132035;27;20023;-79
2024/01/11 06:35:34;;;;;;;8.57;1.52;;;7.40;99.90;;;;;;5131941;27;20488;-78
2024/01/11 06:38:00;;;;;;;8.98;1.23;;;7.40;99.90;;;;;;5132849;27;20026;-77
2024/01/11 06:40:27;;;;;;;7.93;1.40;;;7.50;99.90;;;;;;5113561;27;20034;-78
2024/01/11 06:42:52;;;;;;;7.05;1.63;;;7.40;99.90;;;;;;5132716;27;20098;-78
2024/01/11 06:45:18;;;;;;;8.32;2.15;;;7.40;99.90;;;;;;5132383;27;20057;-78
2024/01/11 06:47:46;;;;;;;7.55;1.55;;;7.40;99.90;;;;;;5131995;27;20027;-79
2024/01/11 06:50:14;;;;;;;3.88;1.13;;;7.50;99.90;;;;;;5132607;27;20015;-79
2024/01/11 06:52:40;;;;;;;9.68;1.30;;;7.50;99.90;;;;;;5113174;27;20068;-79
2024/01/11 06:55:06;;;;;;;8.35;1.58;;;7.40;99.90;;;;;;5132297;27;20101;-79
2024/01/11 06:57:32;;;;;;;7.72;1.63;;;7.40;99.90;;;;;;5131966;27;20043;-79
2024/01/11 06:59:57;;;;;;;10.85;1.63;;;7.50;99.90;;;;;;5131822;27;20041;-79
2024/01/11 07:02:23;;;;;;;10.13;1.30;;;7.50;99.90;;;;;;5132288;27;20084;-79
2024/01/11 07:04:49;;;;;;;3.35;1.20;;;7.50;99.90;;;;;;5112952;27;20027;-79
2024/01/11 07:07:15;;;;;;;8.30;1.45;;;7.50;99.90;;;;;;5131890;27;20108;-79
2024/01/11 07:09:40;;;;;;;3.95;1.00;;;7.50;99.90;;;;;;5112929;27;20375;-79
2024/01/11 07:12:06;;;;;;;6.60;1.30;;;7.50;99.90;;;;;;5131868;27;20470;-79
2024/01/11 07:14:32;;;;;;;10.40;1.38;;;7.50;99.90;;;;;;5112904;27;20019;-79
2024/01/11 07:16:58;;;;;;;5.35;1.20;;;7.50;99.90;;;;;;5131581;27;20088;-79
2024/01/11 07:19:23;;;;;;;6.30;1.10;;;7.50;99.90;;;;;;5131683;27;20015;-79
2024/01/11 07:21:49;;;;;;;5.90;1.20;;;7.50;99.90;;;;;;5130862;27;20023;-79
2024/01/11 07:24:15;;;;;;;8.18;1.38;;;7.50;99.90;;;;;;5131737;27;20410;-79
2024/01/11 07:26:41;;;;;;;8.95;1.90;;;7.50;99.90;;;;;;5131067;27;20031;-79
2024/01/11 07:29:07;;;;;;;11.25;1.92;;;7.50;99.90;;;;;;5131616;27;20019;-78
2024/01/11 07:31:33;;;;;;;6.63;1.50;;;7.50;99.90;;;;;;5130956;27;20031;-79
2024/01/11 07:33:59;;;;;;;7.38;1.40;;;7.50;99.90;;;;;;5131957;28;20360;-79
2024/01/11 07:36:25;;;;;;;8.73;1.77;;;7.50;99.90;;;;;;5131643;28;20081;-79
2024/01/11 07:38:51;;;;;;;5.22;2.10;;;7.50;99.90;;;;;;5131459;28;20452;-79
2024/01/11 07:41:17;;;;;;;6.65;1.50;;;7.50;99.90;;;;;;5131869;28;20059;-79
2024/01/11 07:43:43;;;;;;;5.40;1.20;;;7.40;99.90;;;;;;5131385;28;20021;-79
2024/01/11 07:46:09;;;;;;;5.20;1.48;;;7.50;99.90;;;;;;5134258;27;20019;-79
2024/01/11 07:48:35;;;;;;;7.60;1.73;;;7.50;99.90;;;;;;5135080;27;20362;-79
2024/01/11 07:51:00;;;;;;;5.45;1.20;;;7.50;99.90;;;;;;5137013;27;20023;-78
2024/01/11 07:53:26;;;;;;;7.40;1.45;;;7.50;99.90;;;;;;5135609;27;20030;-79
2024/01/11 07:55:52;;;;;;;6.07;1.85;;;7.50;99.90;;;;;;5134986;27;20019;-79
2024/01/11 07:58:18;;;;;;;5.47;1.48;;;7.50;99.90;;;;;;5116701;27;20039;-78
2024/01/11 08:00:44;;;;;;;4.97;1.20;;;7.50;99.90;;;;;;5135043;27;20349;-78
2024/01/11 08:03:10;;;;;;;8.05;1.52;;;7.40;99.90;;;;;;5135373;27;20030;-78
2024/01/11 08:05:36;;;;;;;9.20;1.50;;;7.40;99.90;;;;;;5116381;27;20023;-78
2024/01/11 08:08:03;;;;;;;8.15;1.33;;;7.40;99.90;;;;;;5135040;27;20079;-78
2024/01/11 08:10:32;;;;;;;7.15;1.80;;;7.40;99.90;;;;;;5135051;27;20134;-79
2024/01/11 08:12:59;;;;;;;5.32;1.40;;;7.50;99.90;;;;;;5135400;27;20467;-79
2024/01/11 08:15:25;;;;;;;6.82;1.30;;;7.50;99.90;;;;;;5134834;27;20055;-80
2024/01/11 08:17:50;;;;;;;4.63;1.30;;;7.50;99.90;;;;;;5134955;27;20035;-78
2024/01/11 08:20:16;;;;;;;8.85;1.48;;;7.50;99.90;;;;;;5134813;27;20020;-78
2024/01/11 08:22:46;;;;;;;3.92;0.80;;;7.50;99.90;;;;;;5120753;27;20098;-79
2024/01/11 08:25:13;;;;;;;8.32;1.40;;;7.50;99.90;;;;;;5095941;28;20023;-79
2024/01/11 08:27:39;;;;;;;4.57;1.50;;;7.50;99.90;;;;;;5113826;28;20356;-79
2024/01/11 08:30:05;;;;;;;6.72;1.65;;;7.50;99.90;;;;;;5114584;28;20019;-79
2024/01/11 08:32:31;;;;;;;6.70;1.38;;;7.50;99.90;;;;;;5114147;28;20053;-79
2024/01/11 08:34:57;;;;;;;6.22;1.38;;;7.50;99.90;;;;;;5113741;28;20019;-79
2024/01/11 08:37:23;;;;;;;6.55;1.40;;;7.50;99.90;;;;;;5113738;28;20409;-79
2024/01/11 08:39:50;;;;;;;14.07;1.95;;;7.50;99.90;;;;;;5113378;28;20054;-79
2024/01/11 08:42:15;;;;;;;6.63;1.52;;;7.50;99.90;;;;;;5133932;27;20031;-79
2024/01/11 08:44:42;;;;;;;6.60;1.50;;;7.50;99.90;;;;;;5143080;27;20065;-80
2024/01/11 08:47:09;;;;;;;11.10;1.48;;;7.50;99.90;;;;;;5146401;27;20012;-80
2024/01/11 08:49:38;;;;;;;3.63;1.70;;;7.50;99.90;;;;;;5145840;27;20017;-80
2024/01/11 08:52:05;;;;;;;6.50;1.42;;;7.50;99.90;;;;;;5129803;27;20107;-80
2024/01/11 08:54:32;;;;;;;6.38;1.75;;;7.50;99.90;;;;;;5124813;27;20035;-80
2024/01/11 08:56:58;;;;;;;6.55;1.45;;;7.50;99.90;;;;;;5122958;27;20039;-80
2024/01/11 08:59:25;;;;;;;7.43;1.65;;;7.50;99.90;;;;;;5134585;27;20023;-80
2024/01/11 09:01:51;;;;;;;5.82;1.92;;;7.50;99.90;;;;;;5135039;27;20019;-80
2024/01/11 09:04:17;;;;;;;8.68;1.52;;;7.50;99.90;;;;;;5124987;27;20105;-80
2024/01/11 09:06:43;;;;;;;4.78;2.03;;;7.50;99.90;;;;;;5124317;27;20487;-80
2024/01/11 09:09:11;;;;;;;5.28;1.70;;;7.50;99.90;;;;;;5144917;27;20078;-80
2024/01/11 09:11:37;;;;;;;6.22;1.98;;;7.50;99.90;;;;;;5144827;27;20504;-80
2024/01/11 09:14:03;;;;;;;6.55;1.30;;;7.50;99.90;;;;;;5145924;27;20139;-80
2024/01/11 09:16:29;;;;;;;6.43;1.58;;;7.50;99.90;;;;;;5142578;27;20067;-80
2024/01/11 09:18:54;;;;;;;7.05;1.40;;;7.50;99.90;;;;;;5124150;27;20545;-80
2024/01/11 09:21:20;;;;;;;10.27;1.40;;;7.60;99.90;;;;;;5144128;27;20495;-80
2024/01/11 09:23:46;;;;;;;7.22;1.50;;;7.60;99.90;;;;;;5133995;27;20026;-80
2024/01/11 09:26:13;;;;;;;9.23;1.52;;;7.60;99.90;;;;;;5135810;27;20461;-80
2024/01/11 09:28:38;;;;;;;9.00;2.10;;;7.60;99.90;;;;;;5133417;27;20023;-80
2024/01/11 09:31:04;;;;;;;11.75;2.63;;;7.60;99.90;;;;;;5133622;27;20023;-80
2024/01/11 09:33:30;;;;;;;9.55;2.60;;;7.60;99.90;;;;;;5115290;27;20112;-80
2024/01/11 09:35:56;;;;;;;10.93;2.38;;;7.60;99.90;;;;;;5133557;27;20023;-80
2024/01/11 09:38:22;;;;;;;9.40;1.65;;;7.60;99.90;;;;;;5133755;27;20105;-80
2024/01/11 09:41:21;;;;;;;6.35;1.83;;;7.60;99.90;;;;;;5114892;27;20023;-80
2024/01/11 09:43:51;;;;;;;5.65;2.22;;;7.60;99.90;;;;;;5129188;27;20031;-80
2024/01/11 09:46:17;;;;;;;8.43;2.63;;;7.60;99.90;;;;;;5115336;27;20467;-80
2024/01/11 09:48:45;;;;;;;8.80;2.10;;;7.60;99.90;;;;;;5133042;27;20027;-80
2024/01/11 09:51:11;;;;;;;8.95;2.38;;;7.70;99.90;;;;;;5133667;27;20368;-80
2024/01/11 09:53:38;;;;;;;5.32;1.67;;;7.60;99.90;;;;;;5134017;27;20118;-79
2024/01/11 09:56:09;;;;;;;8.18;1.60;;;7.70;99.90;;;;;;5132657;27;20015;-80
2024/01/11 09:58:38;;;;;;;3.63;1.10;;;7.70;99.90;;;;;;5122265;27;20487;-80
2024/01/11 10:01:10;;;;;;;5.78;1.30;;;7.70;99.90;;;;;;5103592;27;20454;-80
2024/01/11 10:03:36;;;;;;;8.80;1.70;;;7.80;99.90;;;;;;5131047;27;20026;-80
2024/01/11 10:06:03;;;;;;;5.22;1.40;;;7.80;99.90;;;;;;5132987;27;20027;-79
2024/01/11 10:08:31;;;;;;;5.97;1.33;;;7.80;99.90;;;;;;5132669;27;20026;-78
2024/01/11 10:10:57;;;;;;;6.20;0.98;;;7.80;99.90;;;;;;5131171;27;20057;-80
2024/01/11 10:13:31;;;;;;;5.25;1.50;;;7.80;99.90;;;;;;5133081;27;20042;-78
2024/01/11 10:16:13;;;;;;;7.70;1.83;;;7.80;99.90;;;;;;5132398;27;20726;-78
2024/01/11 10:18:39;;;;;;;4.03;1.20;;;7.80;99.90;;;;;;5120131;27;20031;-79
2024/01/11 10:21:05;;;;;;;6.43;1.30;;;7.80;99.90;;;;;;5103939;27;20027;-78
2024/01/11 10:23:34;;;;;;;7.45;1.20;;;7.80;99.90;;;;;;5121750;27;20065;-78
2024/01/11 10:26:00;;;;;;;8.18;1.27;;;7.80;99.90;;;;;;5113804;27;20049;-78
2024/01/11 10:28:26;;;;;;;3.83;1.27;;;7.80;99.90;;;;;;5114308;27;20019;-78
2024/01/11 10:30:55;;;;;;;5.07;1.20;;;7.80;99.90;;;;;;5132961;27;20032;-77
2024/01/11 10:33:22;;;;;;;5.57;1.00;;;7.80;99.90;;;;;;5132681;27;20015;-78
2024/01/11 10:35:49;;;;;;;8.48;1.10;;;7.80;99.90;;;;;;5132238;27;20126;-78
2024/01/11 10:38:16;;;;;;;8.95;1.10;;;7.90;99.90;;;;;;5134328;27;20021;-78
2024/01/11 10:40:42;;;;;;;5.13;0.95;;;7.90;99.90;;;;;;5132940;27;20019;-79
2024/01/11 10:43:13;;;;;;;5.97;0.90;;;7.90;99.90;;;;;;5132570;27;20019;-79
2024/01/11 10:45:39;;;;;;;7.22;1.05;;;7.90;99.90;;;;;;5132567;27;20022;-79
2024/01/11 10:48:15;;;;;;;7.35;1.20;;;7.90;99.90;;;;;;5131827;27;20226;-78
2024/01/11 10:50:45;;;;;;;3.38;1.00;;;7.90;99.90;;;;;;5132127;27;20063;-78
2024/01/11 10:53:41;;;;;;;8.27;1.85;;;7.90;99.90;;;;;;5113843;27;20420;-79
2024/01/11 10:56:07;;;;;;;6.03;1.02;;;7.90;99.90;;;;;;5131486;27;20026;-80
2024/01/11 10:58:35;;;;;;;5.43;1.73;;;8.00;99.90;;;;;;5132360;27;20325;-80
2024/01/11 11:01:04;;;;;;;5.25;1.38;;;8.00;99.90;;;;;;5131406;27;20019;-79
2024/01/11 11:03:33;;;;;;;3.75;0.98;;;8.10;99.90;;;;;;5131948;27;20368;-79
2024/01/11 11:06:00;;;;;;;5.18;1.10;;;8.10;99.90;;;;;;5130967;27;20118;-80
2024/01/11 11:08:27;;;;;;;5.25;1.20;;;8.10;99.90;;;;;;5131952;27;20456;-79
2024/01/11 11:10:57;;;;;;;4.07;0.90;;;8.10;99.90;;;;;;5130918;27;20027;-79
2024/01/11 11:13:24;;;;;;;5.38;1.13;;;8.10;99.90;;;;;;5131674;27;20402;-80
2024/01/11 11:15:50;;;;;;;4.38;1.10;;;8.10;99.90;;;;;;5131190;27;20117;-80
2024/01/11 11:18:18;;;;;;;3.70;1.20;;;8.10;99.90;;;;;;5131951;27;20023;-80
2024/01/11 11:20:44;;;;;;;4.50;1.00;;;8.10;99.90;;;;;;5130761;27;20023;-80
2024/01/11 11:23:12;;;;;;;5.25;1.25;;;8.10;99.90;;;;;;5131506;27;20060;-80
2024/01/11 11:25:39;;;;;;;7.43;1.50;;;8.10;99.90;;;;;;5113119;28;20415;-80
2024/01/11 11:28:06;;;;;;;4.97;1.40;;;8.10;99.90;;;;;;5131290;27;20120;-80
2024/01/11 11:30:32;;;;;;;6.70;1.60;;;8.10;99.90;;;;;;5131401;27;20052;-81
2024/01/11 11:33:07;;;;;;;4.85;1.20;;;8.10;99.90;;;;;;5131265;27;20027;-79
2024/01/11 11:35:32;;;;;;;4.32;1.63;;;8.20;99.90;;;;;;5132084;27;20042;-79
2024/01/11 11:37:58;;;;;;;5.05;1.45;;;8.20;99.90;;;;;;5131132;28;20405;-80
2024/01/11 11:40:45;;;;;;;3.08;1.52;;;8.30;99.90;;;;;;5131744;28;20420;-79
2024/01/11 11:43:11;;;;;;;5.50;1.48;;;8.20;99.90;;;;;;5132124;28;20027;-80
2024/01/11 11:45:38;;;;;;;4.18;1.20;;;8.20;99.90;;;;;;5132235;28;20016;-81
2024/01/11 11:48:29;;;;;;;3.25;1.45;;;8.30;99.90;;;;;;5131722;28;20031;-81
2024/01/11 11:51:12;;;;;;;4.93;1.85;;;8.20;99.90;;;;;;5130920;28;20027;-80
2024/01/11 11:53:42;;;;;;;2.20;1.10;;;8.30;99.90;;;;;;5131844;28;20102;-81
2024/01/11 11:56:16;;;;;;;5.07;1.42;;;8.30;99.90;;;;;;5130926;27;20019;-80
2024/01/11 11:58:44;;;;;;;3.25;1.30;;;8.30;99.90;;;;;;5131773;28;20103;-80
2024/01/11 12:01:09;;;;;;;5.15;1.67;;;8.30;99.90;;;;;;5131380;28;20027;-79
2024/01/11 12:03:41;;;;;;;5.57;1.50;;;8.30;99.90;;;;;;5131842;28;20364;-79
2024/01/11 12:06:11;;;;;;;8.13;1.85;;;8.30;99.90;;;;;;5130773;28;20051;-80
2024/01/11 12:08:37;;;;;;;7.88;2.15;;;8.30;99.90;;;;;;5136986;27;20027;-80
2024/01/11 12:11:05;;;;;;;4.60;1.40;;;8.30;99.90;;;;;;5140326;27;20650;-80
2024/01/11 12:13:32;;;;;;;8.30;2.17;;;8.30;99.90;;;;;;5135211;27;20023;-80
2024/01/11 12:15:58;;;;;;;6.15;1.60;;;8.30;99.90;;;;;;5130895;28;20023;-79
2024/01/11 12:18:24;;;;;;;9.43;2.25;;;8.30;99.90;;;;;;5131790;28;20071;-78
2024/01/11 12:20:52;;;;;;;7.70;2.00;;;8.30;99.90;;;;;;5130931;28;20363;-78
2024/01/11 12:23:18;;;;;;;6.60;1.83;;;8.40;99.90;;;;;;5131763;28;20160;-78
2024/01/11 12:25:44;;;;;;;13.13;1.90;;;8.40;99.90;;;;;;5131739;28;20180;-79
2024/01/11 12:28:10;;;;;;;5.97;1.83;;;8.40;99.90;;;;;;5131930;28;20504;-79
2024/01/11 12:30:36;;;;;;;6.82;1.52;;;8.40;99.90;;;;;;5110425;28;20103;-79
2024/01/11 12:33:02;;;;;;;5.88;1.85;;;8.40;99.90;;;;;;5125968;27;20038;-79
2024/01/11 12:35:29;;;;;;;7.03;1.80;;;8.40;99.90;;;;;;5123413;27;20453;-79
2024/01/11 12:37:58;;;;;;;5.93;2.75;;;8.40;99.90;;;;;;5114736;28;20015;-79
2024/01/11 12:40:23;;;;;;;5.90;1.95;;;8.40;99.90;;;;;;5115171;28;20030;-79
2024/01/11 12:42:50;;;;;;;10.23;1.80;;;8.40;99.90;;;;;;5114655;28;20016;-79
2024/01/11 12:45:16;;;;;;;7.13;1.30;;;8.40;99.90;;;;;;5116026;28;20032;-79
2024/01/11 12:47:43;;;;;;;6.15;1.60;;;8.40;99.90;;;;;;5115762;28;20023;-79
2024/01/11 12:50:09;;;;;;;7.15;1.42;;;8.50;99.90;;;;;;5115432;28;20090;-79
2024/01/11 12:52:35;;;;;;;6.28;1.27;;;8.50;99.90;;;;;;5115570;28;20042;-79